createdAt,value
2022-11-28T00:01:34.150Z,54.40
2022-11-28T00:04:00.927Z,54.30
2022-11-28T00:06:27.839Z,53.03
2022-11-28T00:08:55.024Z,53.93
2022-11-28T00:11:21.750Z,53.17
2022-11-28T00:13:50.691Z,51.37
2022-11-28T00:16:22.870Z,49.53
2022-11-28T00:18:50.446Z,52.13
2022-11-28T00:21:17.277Z,51.20
2022-11-28T00:23:46.629Z,52.43
2022-11-28T00:26:13.285Z,49.97
2022-11-28T00:28:40.062Z,50.33
2022-11-28T00:31:06.880Z,51.43
2022-11-28T00:33:33.634Z,50.30
2022-11-28T00:36:01.238Z,50.80
2022-11-28T00:38:30.369Z,50.60
2022-11-28T00:41:01.282Z,49.57
2022-11-28T00:43:28.139Z,51.97
2022-11-28T00:45:55.035Z,50.27
2022-11-28T00:48:21.875Z,49.33
2022-11-28T00:50:48.585Z,51.07
2022-11-28T00:53:15.359Z,51.13
2022-11-28T00:55:42.112Z,51.63
2022-11-28T00:58:10.949Z,51.23
2022-11-28T01:00:38.020Z,48.53
2022-11-28T01:03:04.945Z,51.03
2022-11-28T01:05:31.656Z,48.97
2022-11-28T01:08:00.554Z,47.83
2022-11-28T01:10:29.957Z,49.83
2022-11-28T01:12:59.133Z,52.33
2022-11-28T01:15:26.029Z,53.50
2022-11-28T01:17:52.706Z,53.47
2022-11-28T01:20:19.515Z,53.83
2022-11-28T01:22:46.255Z,54.30
2022-11-28T01:25:12.961Z,53.77
2022-11-28T01:27:39.717Z,53.67
2022-11-28T01:30:12.018Z,57.37
2022-11-28T01:32:38.711Z,53.10
2022-11-28T01:35:05.763Z,52.40
2022-11-28T01:37:32.471Z,54.90
2022-11-28T01:40:01.333Z,53.83
2022-11-28T01:42:30.295Z,54.47
2022-11-28T01:45:07.791Z,53.67
2022-11-28T01:47:36.955Z,54.33
2022-11-28T01:50:06.902Z,54.10
2022-11-28T01:52:35.672Z,52.77
2022-11-28T01:55:04.661Z,51.63
2022-11-28T01:57:33.524Z,52.73
2022-11-28T02:00:12.651Z,53.27
2022-11-28T02:02:53.520Z,51.57
2022-11-28T02:05:21.047Z,50.30
2022-11-28T02:07:48.119Z,50.80
2022-11-28T02:10:25.608Z,50.70
2022-11-28T02:13:19.781Z,51.00
2022-11-28T02:16:09.280Z,49.27
2022-11-28T02:18:55.203Z,50.23
2022-11-28T02:21:33.415Z,49.97
2022-11-28T02:24:21.408Z,49.57
2022-11-28T02:27:28.515Z,49.03
2022-11-28T02:30:03.760Z,49.03
2022-11-28T02:32:49.120Z,48.30
2022-11-28T02:35:20.989Z,47.13
2022-11-28T02:38:03.152Z,45.27
2022-11-28T02:40:34.809Z,48.13
2022-11-28T02:43:03.695Z,48.33
2022-11-28T02:45:37.424Z,48.77
2022-11-28T02:48:09.169Z,45.80
2022-11-28T02:50:51.194Z,48.33
2022-11-28T02:53:20.517Z,46.93
2022-11-28T02:55:47.224Z,43.70
2022-11-28T02:58:16.060Z,44.70
2022-11-28T03:00:43.828Z,44.87
2022-11-28T03:03:16.641Z,44.57
2022-11-28T03:05:44.505Z,43.13
2022-11-28T03:08:26.097Z,42.93
2022-11-28T03:11:04.790Z,43.53
2022-11-28T03:13:45.574Z,43.33
2022-11-28T03:16:23.990Z,44.23
2022-11-28T03:18:59.750Z,45.53
2022-11-28T03:21:38.495Z,46.17
2022-11-28T03:24:25.467Z,46.43
2022-11-28T03:26:57.520Z,46.70
2022-11-28T03:29:33.062Z,44.50
2022-11-28T03:32:06.083Z,46.30
2022-11-28T03:34:36.359Z,47.17
2022-11-28T03:37:05.145Z,46.67
2022-11-28T03:39:37.867Z,47.27
2022-11-28T03:42:09.112Z,47.50
2022-11-28T03:44:44.047Z,48.83
2022-11-28T03:47:11.597Z,49.17
2022-11-28T03:49:42.416Z,49.37
2022-11-28T03:52:16.694Z,47.67
2022-11-28T03:54:58.006Z,48.60
2022-11-28T03:57:47.183Z,48.33
2022-11-28T04:00:14.351Z,48.20
2022-11-28T04:02:53.159Z,50.40
2022-11-28T04:05:51.050Z,50.60
2022-11-28T04:08:27.126Z,52.87
2022-11-28T04:10:56.894Z,50.23
2022-11-28T04:13:29.393Z,49.30
2022-11-28T04:16:04.099Z,51.67
2022-11-28T04:18:54.548Z,50.97
2022-11-28T04:21:27.226Z,52.00
2022-11-28T04:23:55.211Z,48.70
2022-11-28T04:26:35.815Z,50.87
2022-11-28T04:29:05.085Z,48.97
2022-11-28T04:31:32.365Z,49.33
2022-11-28T04:34:04.757Z,49.23
2022-11-28T04:36:33.821Z,45.50
2022-11-28T04:39:00.577Z,43.67
2022-11-28T04:41:35.925Z,44.63
2022-11-28T04:44:14.936Z,43.80
2022-11-28T04:46:47.504Z,43.47
2022-11-28T04:49:14.200Z,43.07
2022-11-28T04:51:53.439Z,41.47
2022-11-28T04:54:58.446Z,43.70
2022-11-28T04:57:41.553Z,41.37
2022-11-28T05:00:13.205Z,42.97
2022-11-28T05:02:42.697Z,42.40
2022-11-28T05:05:19.511Z,41.47
2022-11-28T05:07:46.297Z,41.77
2022-11-28T05:10:13.984Z,43.13
2022-11-28T05:12:40.738Z,41.10
2022-11-28T05:15:08.138Z,42.47
2022-11-28T05:17:40.459Z,40.80
2022-11-28T05:20:09.139Z,41.50
2022-11-28T05:22:35.843Z,41.23
2022-11-28T05:25:05.509Z,40.33
2022-11-28T05:27:32.285Z,41.03
2022-11-28T05:30:01.540Z,40.77
2022-11-28T05:32:33.308Z,41.93
2022-11-28T05:35:00.004Z,40.77
2022-11-28T05:37:26.711Z,41.10
2022-11-28T05:39:53.949Z,41.77
2022-11-28T05:42:20.648Z,39.57
2022-11-28T05:44:48.157Z,40.30
2022-11-28T05:47:17.460Z,39.63
2022-11-28T05:49:48.968Z,40.33
2022-11-28T05:52:15.684Z,39.77
2022-11-28T05:54:44.595Z,39.63
2022-11-28T05:57:13.877Z,39.27
2022-11-28T05:59:40.816Z,37.57
2022-11-28T06:02:07.843Z,40.13
2022-11-28T06:04:34.683Z,40.07
2022-11-28T06:07:01.407Z,39.37
2022-11-28T06:09:28.098Z,40.30
2022-11-28T06:11:54.839Z,41.13
2022-11-28T06:14:21.558Z,40.33
2022-11-28T06:16:48.534Z,42.63
2022-11-28T06:19:15.332Z,41.97
2022-11-28T06:21:44.541Z,43.03
2022-11-28T06:24:11.324Z,41.97
2022-11-28T06:26:38.021Z,42.70
2022-11-28T06:29:07.196Z,40.27
2022-11-28T06:31:34.330Z,41.20
2022-11-28T06:34:06.016Z,43.63
2022-11-28T06:36:32.756Z,43.33
2022-11-28T06:38:59.502Z,43.57
2022-11-28T06:41:26.189Z,45.07
2022-11-28T06:43:52.922Z,45.33
2022-11-28T06:46:20.623Z,44.27
2022-11-28T06:48:48.030Z,45.07
2022-11-28T06:51:14.893Z,44.93
2022-11-28T06:53:41.627Z,44.13
2022-11-28T06:56:09.985Z,44.50
2022-11-28T06:58:41.574Z,44.90
2022-11-28T07:01:14.064Z,45.77
2022-11-28T07:03:40.920Z,46.00
2022-11-28T07:06:07.966Z,44.77
2022-11-28T07:08:34.809Z,43.90
2022-11-28T07:11:12.740Z,45.33
2022-11-28T07:13:40.017Z,42.40
2022-11-28T07:16:07.438Z,41.13
2022-11-28T07:18:36.500Z,42.53
2022-11-28T07:21:03.618Z,41.60
2022-11-28T07:23:30.310Z,39.43
2022-11-28T07:26:00.970Z,39.83
2022-11-28T07:28:28.599Z,40.93
2022-11-28T07:31:11.853Z,43.03
2022-11-28T07:33:41.800Z,43.90
2022-11-28T07:36:15.722Z,44.13
2022-11-28T07:38:42.568Z,44.20
2022-11-28T07:41:13.313Z,46.10
2022-11-28T07:43:43.261Z,44.90
2022-11-28T07:46:11.873Z,43.90
2022-11-28T07:48:41.113Z,44.50
2022-11-28T07:51:11.888Z,44.73
2022-11-28T07:53:38.636Z,43.97
2022-11-28T07:56:06.727Z,44.33
2022-11-28T07:58:34.214Z,42.33
2022-11-28T08:01:01.108Z,40.33
2022-11-28T08:03:27.907Z,41.80
2022-11-28T08:06:01.728Z,41.30
2022-11-28T08:08:32.255Z,42.20
2022-11-28T08:11:02.973Z,40.87
2022-11-28T08:13:31.902Z,41.40
2022-11-28T08:15:58.655Z,40.43
2022-11-28T08:18:25.415Z,41.60
2022-11-28T08:20:54.670Z,40.10
2022-11-28T08:23:21.355Z,40.17
2022-11-28T08:25:48.082Z,41.60
2022-11-28T08:28:14.838Z,39.97
2022-11-28T08:30:44.086Z,39.83
2022-11-28T08:33:13.816Z,39.83
2022-11-28T08:35:40.606Z,38.67
2022-11-28T08:38:07.413Z,40.97
2022-11-28T08:40:34.209Z,38.43
2022-11-28T08:43:00.905Z,38.37
2022-11-28T08:45:27.626Z,37.57
2022-11-28T08:47:54.403Z,37.83
2022-11-28T08:50:25.673Z,39.67
2022-11-28T08:52:52.363Z,40.37
2022-11-28T08:55:22.246Z,38.47
2022-11-28T08:57:52.130Z,39.87
2022-11-28T09:00:19.678Z,40.10
2022-11-28T09:02:46.408Z,40.20
2022-11-28T09:05:13.184Z,41.83
2022-11-28T09:07:39.899Z,40.03
2022-11-28T09:10:07.387Z,40.63
2022-11-28T09:12:36.274Z,41.27
2022-11-28T09:15:03.038Z,43.23
2022-11-28T09:17:29.724Z,42.70
2022-11-28T09:19:56.423Z,41.77
2022-11-28T09:22:23.153Z,42.53
2022-11-28T09:24:49.873Z,42.00
2022-11-28T09:27:19.069Z,40.43
2022-11-28T09:29:45.884Z,39.00
2022-11-28T09:32:15.068Z,39.43
2022-11-28T09:34:44.026Z,40.20
2022-11-28T09:37:10.855Z,38.17
2022-11-28T09:39:57.448Z,35.67
2022-11-28T09:42:43.642Z,37.93
2022-11-28T09:45:20.968Z,35.47
2022-11-28T09:47:52.716Z,34.60
2022-11-28T09:50:25.537Z,34.47
2022-11-28T09:53:10.937Z,30.90
2022-11-28T09:56:00.204Z,30.37
2022-11-28T09:58:53.552Z,31.43
2022-11-28T10:01:20.264Z,31.23
2022-11-28T10:04:04.905Z,31.57
2022-11-28T10:06:36.158Z,31.20
2022-11-28T10:09:15.537Z,31.70
2022-11-28T10:12:16.669Z,30.57
2022-11-28T10:14:52.368Z,31.77
2022-11-28T10:17:33.551Z,30.53
2022-11-28T10:20:08.589Z,31.10
2022-11-28T10:22:50.549Z,30.20
2022-11-28T10:25:29.484Z,31.03
2022-11-28T10:27:58.568Z,29.83
2022-11-28T10:30:26.746Z,30.10
2022-11-28T10:33:04.235Z,28.27
2022-11-28T10:35:44.648Z,28.47
2022-11-28T10:38:15.325Z,28.57
2022-11-28T10:40:44.995Z,27.17
2022-11-28T10:43:27.687Z,27.63
2022-11-28T10:46:17.413Z,28.60
2022-11-28T10:48:50.163Z,28.00
2022-11-28T10:51:57.691Z,27.57
2022-11-28T10:54:39.357Z,28.63
2022-11-28T10:57:18.049Z,28.40
2022-11-28T10:59:45.068Z,28.27
2022-11-28T11:02:32.273Z,29.80
2022-11-28T11:04:59.142Z,27.03
2022-11-28T11:07:30.831Z,27.23
2022-11-28T11:10:15.543Z,27.10
2022-11-28T11:12:42.287Z,27.67
2022-11-28T11:15:29.940Z,27.97
2022-11-28T11:17:57.169Z,28.70
2022-11-28T11:20:29.128Z,27.67
2022-11-28T11:22:56.995Z,27.87
2022-11-28T11:25:25.017Z,29.13
2022-11-28T11:27:53.234Z,29.17
2022-11-28T11:30:27.729Z,28.80
2022-11-28T11:32:56.022Z,30.30
2022-11-28T11:35:28.027Z,29.40
2022-11-28T11:38:15.451Z,29.10
2022-11-28T11:40:42.149Z,29.33
2022-11-28T11:43:25.973Z,30.40
2022-11-28T11:46:11.805Z,28.60
2022-11-28T11:48:43.379Z,29.73
2022-11-28T11:51:25.451Z,30.53
2022-11-28T11:54:13.356Z,29.67
2022-11-28T11:56:41.597Z,28.63
2022-11-28T11:59:15.625Z,27.43
2022-11-28T12:01:43.227Z,26.37
2022-11-28T12:04:43.309Z,28.63
2022-11-28T12:07:04.771Z,28.83
2022-11-28T12:09:48.066Z,28.87
2022-11-28T12:12:17.976Z,31.07
2022-11-28T12:14:47.290Z,30.87
2022-11-28T12:20:27.790Z,30.80
2022-11-28T12:23:18.784Z,30.57
2022-11-28T12:26:08.930Z,31.23
2022-11-28T12:29:00.185Z,30.83
2022-11-28T12:31:48.697Z,30.67
2022-11-28T12:34:30.672Z,31.40
2022-11-28T12:37:09.536Z,32.03
2022-11-28T12:39:47.549Z,29.30
2022-11-28T12:42:38.980Z,29.20
2022-11-28T12:45:33.266Z,30.20
2022-11-28T12:48:21.840Z,31.07
2022-11-28T12:51:07.552Z,28.17
2022-11-28T12:54:06.539Z,27.57
2022-11-28T12:56:42.861Z,27.67
2022-11-28T12:59:17.801Z,28.50
2022-11-28T13:02:05.234Z,28.93
2022-11-28T13:04:49.588Z,28.93
2022-11-28T13:07:42.717Z,28.10
2022-11-28T13:10:17.691Z,28.17
2022-11-28T13:13:04.956Z,27.43
2022-11-28T13:15:34.543Z,27.70
2022-11-28T13:18:15.207Z,26.33
2022-11-28T13:20:45.855Z,26.67
2022-11-28T13:23:28.554Z,27.93
2022-11-28T13:26:04.483Z,26.57
2022-11-28T13:28:53.774Z,26.13
2022-11-28T13:31:25.044Z,27.53
2022-11-28T13:33:52.371Z,26.70
2022-11-28T13:39:38.248Z,24.43
2022-11-28T13:45:31.776Z,25.17
2022-11-28T13:48:01.445Z,26.03
2022-11-28T13:50:28.197Z,26.90
2022-11-28T13:53:00.665Z,25.40
2022-11-28T13:55:40.423Z,26.70
2022-11-28T13:58:28.444Z,26.83
2022-11-28T14:01:05.884Z,26.63
2022-11-28T14:03:57.862Z,26.70
2022-11-28T14:06:30.230Z,28.17
2022-11-28T14:09:12.027Z,29.60
2022-11-28T14:12:03.675Z,29.10
2022-11-28T14:14:46.106Z,30.63
2022-11-28T14:17:37.845Z,31.70
2022-11-28T14:20:28.897Z,31.27
2022-11-28T14:23:17.355Z,29.37
2022-11-28T14:25:45.610Z,30.07
2022-11-28T14:28:25.869Z,30.03
2022-11-28T14:30:59.612Z,30.10
2022-11-28T14:33:31.150Z,29.03
2022-11-28T14:35:57.899Z,28.47
2022-11-28T14:38:30.159Z,28.53
2022-11-28T14:40:59.614Z,27.83
2022-11-28T14:43:30.091Z,27.23
2022-11-28T14:46:15.779Z,26.63
2022-11-28T14:48:57.776Z,27.97
2022-11-28T14:51:49.660Z,27.20
2022-11-28T14:54:19.129Z,27.00
2022-11-28T14:56:45.841Z,26.97
2022-11-28T14:59:12.597Z,26.80
2022-11-28T15:02:32.148Z,26.53
2022-11-28T15:05:15.103Z,27.30
2022-11-28T15:07:41.790Z,25.80
2022-11-28T15:10:23.734Z,26.70
2022-11-28T15:12:56.364Z,28.00
2022-11-28T15:15:23.249Z,26.17
2022-11-28T15:17:51.415Z,26.33
2022-11-28T15:20:34.887Z,27.20
2022-11-28T15:23:01.574Z,26.77
2022-11-28T15:25:37.277Z,27.20
2022-11-28T15:28:14.850Z,26.10
2022-11-28T15:30:48.901Z,27.53
2022-11-28T15:33:17.746Z,27.50
2022-11-28T15:36:10.931Z,27.17
2022-11-28T15:38:37.881Z,27.90
2022-11-28T15:41:04.654Z,27.80
2022-11-28T15:43:31.714Z,29.10
2022-11-28T15:46:00.336Z,27.90
2022-11-28T15:48:39.768Z,30.50
2022-11-28T15:51:09.481Z,29.40
2022-11-28T15:53:41.094Z,29.57
2022-11-28T15:56:10.937Z,30.17
2022-11-28T15:58:37.866Z,29.83
2022-11-28T16:01:10.769Z,30.33
2022-11-28T16:03:45.171Z,29.73
2022-11-28T16:06:14.458Z,30.27
2022-11-28T16:09:19.576Z,30.43
2022-11-28T16:11:51.331Z,31.37
2022-11-28T16:14:29.981Z,30.23
2022-11-28T16:17:00.824Z,30.07
2022-11-28T16:19:35.023Z,31.53
2022-11-28T16:22:03.496Z,29.93
2022-11-28T16:24:40.468Z,31.20
2022-11-28T16:27:07.299Z,29.97
2022-11-28T16:29:35.267Z,30.20
2022-11-28T16:32:26.516Z,29.93
2022-11-28T16:35:00.245Z,30.00
2022-11-28T16:37:27.732Z,29.00
2022-11-28T16:40:06.607Z,30.00
2022-11-28T16:42:33.942Z,29.00
2022-11-28T16:45:27.817Z,31.03
2022-11-28T16:48:11.439Z,30.17
2022-11-28T16:50:38.434Z,28.63
2022-11-28T16:53:05.454Z,30.63
2022-11-28T16:55:34.392Z,30.20
2022-11-28T16:58:22.457Z,29.57
2022-11-28T17:01:01.191Z,28.13
2022-11-28T17:03:57.915Z,30.53
2022-11-28T17:06:28.891Z,29.37
2022-11-28T17:09:01.228Z,28.90
2022-11-28T17:11:29.960Z,29.47
2022-11-28T17:14:08.651Z,29.13
2022-11-28T17:16:40.883Z,28.30
2022-11-28T17:19:07.668Z,28.37
2022-11-28T17:21:47.736Z,29.10
2022-11-28T17:24:31.931Z,30.03
2022-11-28T17:26:58.669Z,29.83
2022-11-28T17:29:25.464Z,29.47
2022-11-28T17:31:55.086Z,28.17
2022-11-28T17:34:31.610Z,29.03
2022-11-28T17:36:59.375Z,29.70
2022-11-28T17:39:29.032Z,28.67
2022-11-28T17:41:58.760Z,27.53
2022-11-28T17:44:26.550Z,28.67
2022-11-28T17:46:54.104Z,28.17
2022-11-28T17:49:20.892Z,28.47
2022-11-28T17:51:50.167Z,28.27
2022-11-28T17:54:17.920Z,27.37
2022-11-28T17:56:45.432Z,26.63
2022-11-28T17:59:12.396Z,28.57
2022-11-28T18:01:39.299Z,27.53
2022-11-28T18:04:06.115Z,28.67
2022-11-28T18:06:35.471Z,29.40
2022-11-28T18:09:06.003Z,28.33
2022-11-28T18:11:37.073Z,28.23
2022-11-28T18:14:03.827Z,29.03
2022-11-28T18:16:32.700Z,30.23
2022-11-28T18:19:01.915Z,28.43
2022-11-28T18:21:28.595Z,28.20
2022-11-28T18:23:55.318Z,29.47
2022-11-28T18:26:26.819Z,27.47
2022-11-28T18:28:53.742Z,29.90
2022-11-28T18:31:22.674Z,29.07
2022-11-28T18:33:51.648Z,30.37
2022-11-28T18:36:22.858Z,30.90
2022-11-28T18:38:49.950Z,30.37
2022-11-28T18:41:17.203Z,31.37
2022-11-28T18:43:44.076Z,31.60
2022-11-28T18:46:19.011Z,30.87
2022-11-28T18:48:46.805Z,31.33
2022-11-28T18:51:17.539Z,30.07
2022-11-28T18:53:49.508Z,31.07
2022-11-28T18:56:16.384Z,30.97
2022-11-28T18:58:45.258Z,32.00
2022-11-28T19:01:13.394Z,32.17
2022-11-28T19:03:40.278Z,32.50
2022-11-28T19:06:09.985Z,31.27
2022-11-28T19:08:36.930Z,32.40
2022-11-28T19:11:14.441Z,31.47
2022-11-28T19:13:44.598Z,30.90
2022-11-28T19:16:21.674Z,31.97
2022-11-28T19:18:48.495Z,31.03
2022-11-28T19:21:22.725Z,31.50
2022-11-28T19:23:49.779Z,29.60
2022-11-28T19:26:20.421Z,32.93
2022-11-28T19:28:47.352Z,32.13
2022-11-28T19:31:20.523Z,31.37
2022-11-28T19:33:58.974Z,31.93
2022-11-28T19:36:27.697Z,30.50
2022-11-28T19:38:54.633Z,30.70
2022-11-28T19:41:21.792Z,30.77
2022-11-28T19:43:48.561Z,30.53
2022-11-28T19:46:18.086Z,31.20
2022-11-28T19:48:44.792Z,29.83
2022-11-28T19:51:14.245Z,30.37
2022-11-28T19:53:42.150Z,31.03
2022-11-28T19:56:11.879Z,30.23
2022-11-28T19:58:41.069Z,30.33
2022-11-28T20:01:09.425Z,29.30
2022-11-28T20:03:36.877Z,26.93
2022-11-28T20:06:08.508Z,26.83
2022-11-28T20:08:37.983Z,27.80
2022-11-28T20:11:12.784Z,27.20
2022-11-28T20:13:40.477Z,28.03
2022-11-28T20:16:09.000Z,27.37
2022-11-28T20:18:39.505Z,28.37
2022-11-28T20:21:06.654Z,26.50
2022-11-28T20:23:38.102Z,27.83
2022-11-28T20:26:08.008Z,27.83
2022-11-28T20:28:35.592Z,28.43
2022-11-28T20:31:04.802Z,28.77
2022-11-28T20:33:33.824Z,28.03
2022-11-28T20:36:12.143Z,26.17
2022-11-28T20:38:38.914Z,26.67
2022-11-28T20:41:07.456Z,27.57
2022-11-28T20:43:34.890Z,27.17
2022-11-28T20:46:08.975Z,27.10
2022-11-28T20:48:38.365Z,27.53
2022-11-28T20:51:33.943Z,25.70
2022-11-28T20:54:01.067Z,26.43
2022-11-28T20:56:29.878Z,26.23
2022-11-28T20:58:58.432Z,25.67
2022-11-28T21:01:28.702Z,25.77
2022-11-28T21:03:58.458Z,25.33
2022-11-28T21:06:25.380Z,25.47
2022-11-28T21:08:54.649Z,25.00
2022-11-28T21:11:50.119Z,24.07
2022-11-28T21:14:09.104Z,25.30
2022-11-28T21:16:35.914Z,24.93
2022-11-28T21:19:07.606Z,23.57
2022-11-28T21:21:35.630Z,23.90
2022-11-28T21:24:04.076Z,23.57
2022-11-28T21:26:40.939Z,23.33
2022-11-28T21:29:09.740Z,21.63
2022-11-28T21:31:37.710Z,24.10
2022-11-28T21:34:06.676Z,23.73
2022-11-28T21:36:33.459Z,23.30
2022-11-28T21:39:05.612Z,21.97
2022-11-28T21:41:32.796Z,23.03
2022-11-28T21:43:59.825Z,23.07
2022-11-28T21:46:26.811Z,22.27
2022-11-28T21:48:57.757Z,23.07
2022-11-28T21:51:24.964Z,21.20
2022-11-28T21:53:51.735Z,21.90
2022-11-28T21:56:21.942Z,22.07
2022-11-28T21:58:48.663Z,22.00
2022-11-28T22:01:15.552Z,20.83
2022-11-28T22:03:44.677Z,20.87
2022-11-28T22:06:15.406Z,20.90
2022-11-28T22:08:44.354Z,21.23
2022-11-28T22:11:13.778Z,20.13
2022-11-28T22:13:42.233Z,20.73
2022-11-28T22:16:17.228Z,21.40
2022-11-28T22:18:46.778Z,21.07
2022-11-28T22:21:49.987Z,20.83
2022-11-28T22:24:02.487Z,21.70
2022-11-28T22:26:31.355Z,20.30
2022-11-28T22:28:58.972Z,20.50
2022-11-28T22:31:25.866Z,20.47
2022-11-28T22:33:54.814Z,21.90
2022-11-28T22:36:24.080Z,20.67
2022-11-28T22:38:54.808Z,21.37
2022-11-28T22:41:28.343Z,21.70
2022-11-28T22:43:57.104Z,20.47
2022-11-28T22:46:23.885Z,21.17
2022-11-28T22:48:51.871Z,21.13
2022-11-28T22:51:21.941Z,21.50
2022-11-28T22:53:52.103Z,20.47
2022-11-28T22:56:18.848Z,21.40
2022-11-28T22:58:48.698Z,21.80
2022-11-28T23:01:20.399Z,20.63
2022-11-28T23:03:49.804Z,20.97
2022-11-28T23:06:24.637Z,22.13
2022-11-28T23:08:51.791Z,20.90
2022-11-28T23:11:23.304Z,21.53
2022-11-28T23:13:50.592Z,21.50
2022-11-28T23:16:17.405Z,21.73
2022-11-28T23:18:47.810Z,20.93
2022-11-28T23:21:14.644Z,21.77
2022-11-28T23:23:44.005Z,22.03
2022-11-28T23:26:15.947Z,21.70
2022-11-28T23:28:42.806Z,22.50
2022-11-28T23:31:13.832Z,21.90
2022-11-28T23:33:45.517Z,21.87
2022-11-28T23:36:17.381Z,22.63
2022-11-28T23:38:44.339Z,23.27
2022-11-28T23:41:11.250Z,21.60
2022-11-28T23:43:38.156Z,21.90
2022-11-28T23:46:05.096Z,21.30
2022-11-28T23:48:34.362Z,22.47
2022-11-28T23:51:01.122Z,22.73
2022-11-28T23:53:27.823Z,21.90
2022-11-28T23:55:54.530Z,21.10
2022-11-28T23:58:21.317Z,21.77
